2019/08/21

定点 富山空港 2019/8/21 wed

RJNT 202300Z VRB01KT 9999 -SHRA FEW003 BKN050 BKN100 26/24 Q1010

20190821_rjnt_00elga

ELGA ほんとに誰もいない海

20190821_rjnt_01ja86an

20190821_rjnt_02ja86an

ANA313 RJTT-RJNT JA86AN B737-881

RJNT 210000Z 25003KT 9999 -SHRA FEW010 BKN050 BKN070 27/24 Q1010

20190821_rjnt_03ja86an

長閑な河原

20190821_rjnt_04ja86an

鮎捕りには、飛行機などアウトオブ眼中

20190821_rjnt_05ja86an

ANA316 RJNT-RJTT JA86AN B737-881

20190821_rjnt_06vpclk

シーケンスチェンジで後になりました。

20190821_rjnt_07vpclk

VP-CLK RJGG-RJNT VP-CLK GV-SP(G550)

20190821_rjnt_08vpclk

今回4泊でしたね。

20190821_rjnt_09ja6768

JA6768 B412EP 富山県消防防災 東部へ

RJNT 210100Z 22003KT 180V280 9999 -SHRA FEW015 BKN050 BKN070 27/23 Q1010

20190821_rjnt_10vpclk

尾翼がでかい

20190821_rjnt_11vpclk

翼の上の胴体には何が・・

20190821_rjnt_12ja131a

321組は初めて来る人も多いのかな

20190821_rjnt_13ja131a

お先に・・

20190821_rjnt_14ja131a

きっちりタクシーラインに沿って

20190821_rjnt_15vpclk

20190821_rjnt_16vpclk

デザインのラインが秀逸

20190821_rjnt_17ja131a

ANA315 RJTT-RJNT JA131A A321-272N

20190821_rjnt_18ja131a

お鼻が白い

20190821_rjnt_19vpclk

20190821_rjnt_20vpclk

VP-CLK RJNT-VHHH VP-CLK GV-SP(G550)

20190821_rjnt_21vpclk

ゆっくりリフトオフ

20190821_rjnt_22vpclk

薄い排煙がジェット機らしい

20190821_rjnt_23ja6768

JA6768

RJNT 210200Z VRB02KT 9999 -SHRA FEW010 SCT030 BKN050 27/24 Q1010

20190821_rjnt_24b9958

20190821_rjnt_25b9958

時折水分補給

20190821_rjnt_26b9958

これは、スペマなの?

20190821_rjnt_27b9958

CSN613 ZYTL-RJNT B-9958 A320-232

20190821_rjnt_28b9958

おでこの上にも

20190821_rjnt_29b9958

これは、雷神さんと戦った跡か・・

20190821_rjnt_30gav

ようやく気がついた出入国在留管理庁 日本の法令を守れば、何も怖くありません。

20190821_rjnt_31ja131a

20190821_rjnt_32ja131a

ANA1181 RJNT-RJCC JA131A A321-272N

RJNT 210300Z VRB02KT 9999 -SHRA FEW010 SCT050 BKN150 28/24 Q1009

20190821_rjnt_33b9958

20190821_rjnt_34b9958

CSN614 RJNT-ZYTL B-9958 A320-232

午後からは雨模様かな

 

| | コメント (0)

2019/08/19

定点 富山空港 2019/8/19 mon

RJNT 190000Z VRB02KT 9000 FEW030 SCT210 31/24 Q1009

お盆を廻ったら、誰もいない海。

20190819_rjnt_00ja83an

20190819_rjnt_01ja83an

ANA313 RJTT-RJNT JA83AN B737-881

20190819_rjnt_02ja83an

ANA316 RJNT-RJTT JA83AN B737-881

20190819_rjnt_03ja139t

今日の「つるぎ」さんは、演舞場へ

20190819_rjnt_04ja139t

舞踏会の練習です。

20190819_rjnt_05ja139t

規定点10

20190819_rjnt_06ja139t

JA139T AW139 富山県警察

RJNT 190000Z VRB02KT 9000 FEW030 SCT210 31/24 Q1009

20190819_rjnt_07ja139t

可憐な風を浴びてきました。

20190819_rjnt_08ja6512

JA6512 AS350B3 AKF

20190819_rjnt_09ja114a

20190819_rjnt_10ja114a

ANA315 RJTT-RJNT JA114A A321-211

20190819_rjnt_11ja114a

エンドまで転がって・・

20190819_rjnt_12b6652

CSN613 ZYTL-RJNT B-6652 A320-232

20190819_rjnt_13b6652

T1でピッタリと止まるがね

20190819_rjnt_14ja9876

JA9876 AS350B NNK

190200Z VRB05KT 8000 FEW030 BKN200 31/25 Q1009

20190819_rjnt_15b18661

ダイナさんは安全にサークリング

20190819_rjnt_16b18661

20190819_rjnt_17b18661

CAL170 RCTP-RJNT B-18661 B737-8AL

20190819_rjnt_18b18661

あんた誰ぇ? 

20190819_rjnt_19b6652

20190819_rjnt_20b6652

CSN614 RJNT-ZYTL B-6652 A320-232

20190819_rjnt_21semi

命は短いねぇ

20190819_rjnt_22ja114a

20190819_rjnt_23ja114a

ANA1181 RJNT-RJCC JA114A A321-211

20190819_rjnt_24ja114a

当面321が続くのかな

20190819_rjnt_25ja9690

山の主

20190819_rjnt_26ja9690

JA9690 AS332L AKF

190200Z VRB05KT 8000 FEW030 BKN200 31/25 Q1009

20190819_rjnt_27ja6512

JA6512

20190819_rjnt_28ja6512

「つるぎ」さん出動

20190819_rjnt_29ja6512

20190819_rjnt_30ja139t

JA139T

20190819_rjnt_31ja139t

今日は防災さん、フライト無し

20190819_rjnt_32b18661

20190819_rjnt_33b18661

CAL171 RJNT-RCTP B-18661 B737-8AL

20190819_rjnt_34b18661

降りそうで降らない空模様

| | コメント (0)

«定点 富山空港 2019/8/17 sat